Time;durP1;ratioP1;P1;durP2;ratioP2;P2;SDS_P1;SDS_P2;PMS_P1;PMS_P2;Temp;Humidity;BMP_temperature;BMP_pressure;BME280_temperature;BME280_humidity;BME280_pressure;Samples;Min_cycle;Max_cycle;Signal;HPM_P1;HPM_P2
2022/10/03 00:01:40;;;;;;;4.00;0.35;;;10.20;99.90;;;;;;5051004;28;20042;-75
2022/10/03 00:04:35;;;;;;;2.15;0.30;;;10.30;99.90;;;;;;5081746;28;20894;-75
2022/10/03 00:07:35;;;;;;;6.15;0.57;;;10.30;99.90;;;;;;5079028;28;20036;-75
2022/10/03 00:10:23;;;;;;;5.28;0.40;;;10.30;99.90;;;;;;5044994;28;20047;-75
2022/10/03 00:13:13;;;;;;;3.30;0.40;;;10.30;99.90;;;;;;5081708;28;20527;-76
2022/10/03 00:16:02;;;;;;;4.85;0.60;;;10.30;99.90;;;;;;5064949;28;21866;-76
2022/10/03 00:18:49;;;;;;;4.38;0.50;;;10.10;99.90;;;;;;5075886;28;20508;-76
2022/10/03 00:21:22;;;;;;;3.08;0.63;;;10.10;99.90;;;;;;5089788;28;20046;-74
2022/10/03 00:24:26;;;;;;;4.03;0.50;;;10.00;99.90;;;;;;5100299;28;20031;-73
2022/10/03 00:26:52;;;;;;;;;;;10.00;99.90;;;;;;5080703;28;20027;-73
2022/10/03 00:29:21;;;;;;;2.92;0.60;;;9.90;99.90;;;;;;5099313;28;19915;-74
2022/10/03 00:32:25;;;;;;;3.13;0.40;;;9.90;99.90;;;;;;5051010;28;20050;-74
2022/10/03 00:35:12;;;;;;;3.05;0.38;;;9.80;99.90;;;;;;5023630;28;20044;-76
2022/10/03 00:38:04;;;;;;;2.90;0.40;;;9.80;99.90;;;;;;5049222;28;20040;-76
2022/10/03 00:41:08;;;;;;;1.60;0.50;;;9.70;99.90;;;;;;5055099;28;20031;-76
2022/10/03 00:44:19;;;;;;;2.22;0.40;;;9.70;99.90;;;;;;5099001;28;20044;-76
2022/10/03 00:47:10;;;;;;;4.05;0.40;;;9.70;99.90;;;;;;5083554;28;20051;-76
2022/10/03 00:49:56;;;;;;;3.08;0.50;;;9.60;99.90;;;;;;5066523;28;20039;-76
2022/10/03 00:52:28;;;;;;;3.28;0.52;;;9.60;99.90;;;;;;5062788;28;20027;-76
2022/10/03 00:55:15;;;;;;;3.83;0.77;;;9.60;99.90;;;;;;5061977;28;20043;-76
2022/10/03 00:58:03;;;;;;;4.50;0.93;;;9.50;99.90;;;;;;5066833;28;20417;-75
2022/10/03 01:00:32;;;;;;;2.35;0.50;;;9.50;99.90;;;;;;5074355;28;20047;-75
2022/10/03 01:03:23;;;;;;;4.45;0.80;;;9.50;99.90;;;;;;5063200;28;20032;-75
2022/10/03 01:06:13;;;;;;;4.45;0.50;;;9.50;99.90;;;;;;5070379;28;20027;-75
2022/10/03 01:09:24;;;;;;;4.47;0.57;;;9.40;99.90;;;;;;5103092;28;20456;-75
2022/10/03 01:12:03;;;;;;;3.92;0.60;;;9.40;99.90;;;;;;5087893;28;20027;-75
2022/10/03 01:14:38;;;;;;;5.15;0.75;;;9.40;99.90;;;;;;5074458;28;20056;-75
2022/10/03 01:17:22;;;;;;;4.95;0.50;;;9.30;99.90;;;;;;5084233;28;20054;-75
2022/10/03 01:20:15;;;;;;;5.10;0.60;;;9.30;99.90;;;;;;5073297;28;20047;-75
2022/10/03 01:23:00;;;;;;;4.40;0.60;;;9.30;99.90;;;;;;5087967;28;20055;-75
2022/10/03 01:25:39;;;;;;;4.35;0.77;;;9.20;99.90;;;;;;5088365;28;20032;-75
2022/10/03 01:32:17;;;;;;;3.67;0.93;;;9.10;99.90;;;;;;5071019;28;20047;-75
2022/10/03 01:34:51;;;;;;;2.55;0.50;;;9.10;99.90;;;;;;5070902;28;20059;-75
2022/10/03 01:37:42;;;;;;;2.08;0.40;;;9.10;99.90;;;;;;5084374;28;20070;-75
2022/10/03 01:40:14;;;;;;;3.78;1.13;;;9.10;99.90;;;;;;5106367;28;20054;-75
2022/10/03 01:42:49;;;;;;;2.88;0.50;;;9.00;99.90;;;;;;5070922;28;20486;-75
2022/10/03 01:45:28;;;;;;;2.80;0.50;;;9.00;99.90;;;;;;5070032;28;20550;-75
2022/10/03 01:48:07;;;;;;;2.72;0.50;;;9.00;99.90;;;;;;5062810;28;20036;-75
2022/10/03 01:51:06;;;;;;;4.50;0.50;;;8.90;99.90;;;;;;5066551;28;20544;-75
2022/10/03 01:53:57;;;;;;;2.72;0.50;;;9.00;99.90;;;;;;5065698;28;20724;-75
2022/10/03 01:56:56;;;;;;;4.78;0.50;;;8.90;99.90;;;;;;5086519;28;20028;-75
2022/10/03 01:59:46;;;;;;;3.00;0.70;;;8.90;99.90;;;;;;5064696;28;20778;-75
2022/10/03 02:02:41;;;;;;;2.65;0.70;;;8.90;99.90;;;;;;5080620;28;20044;-75
2022/10/03 02:05:14;;;;;;;4.80;0.65;;;8.90;99.90;;;;;;5097537;28;20048;-75
2022/10/03 02:07:59;;;;;;;;;;;8.90;99.90;;;;;;5093457;28;20044;-75
2022/10/03 02:10:31;;;;;;;4.30;0.60;;;8.80;99.90;;;;;;5080043;28;20390;-75
2022/10/03 02:13:10;;;;;;;5.32;0.80;;;8.90;99.90;;;;;;5079895;28;20032;-75
2022/10/03 02:15:57;;;;;;;2.00;0.55;;;8.90;99.90;;;;;;5037185;28;20048;-75
2022/10/03 02:18:52;;;;;;;5.85;0.60;;;8.90;99.90;;;;;;5078455;28;20043;-75
2022/10/03 02:21:25;;;;;;;3.88;0.70;;;8.80;99.90;;;;;;5082877;28;20047;-75
2022/10/03 02:24:13;;;;;;;3.97;0.75;;;8.80;99.90;;;;;;5064239;28;20035;-75
2022/10/03 02:27:01;;;;;;;5.30;0.65;;;8.80;99.90;;;;;;5080304;28;20122;-75
2022/10/03 02:29:52;;;;;;;1.90;0.55;;;8.80;99.90;;;;;;5080924;28;20106;-75
2022/10/03 02:32:57;;;;;;;3.80;0.60;;;8.80;99.90;;;;;;5097931;28;20039;-75
2022/10/03 02:36:01;;;;;;;2.83;0.50;;;8.70;99.90;;;;;;5037433;28;20058;-75
2022/10/03 02:39:00;;;;;;;4.18;1.20;;;8.70;99.90;;;;;;5067048;28;20033;-75
2022/10/03 02:41:35;;;;;;;3.22;0.60;;;8.80;99.90;;;;;;5050894;28;20048;-75
2022/10/03 02:44:45;;;;;;;4.03;0.57;;;8.70;99.90;;;;;;5050244;28;20470;-75
2022/10/03 02:47:35;;;;;;;4.75;0.40;;;8.70;99.90;;;;;;5057022;28;20043;-75
2022/10/03 02:50:31;;;;;;;3.25;0.40;;;8.70;99.90;;;;;;5079008;28;20043;-75
2022/10/03 02:53:06;;;;;;;1.40;0.40;;;8.70;99.90;;;;;;5079827;28;20146;-75
2022/10/03 02:55:47;;;;;;;4.18;0.50;;;8.70;99.90;;;;;;5081293;28;20036;-75
2022/10/03 02:58:32;;;;;;;3.50;0.55;;;8.70;99.90;;;;;;5041603;28;20048;-75
2022/10/03 03:01:35;;;;;;;3.67;0.40;;;8.70;99.90;;;;;;5056957;28;20036;-75
2022/10/03 03:04:20;;;;;;;2.38;0.50;;;8.70;99.90;;;;;;5063640;28;20051;-75
2022/10/03 03:07:05;;;;;;;6.38;1.00;;;8.70;99.90;;;;;;5096028;28;20980;-75
2022/10/03 03:09:51;;;;;;;2.42;0.57;;;8.70;99.90;;;;;;5062070;28;20051;-75
2022/10/03 03:12:26;;;;;;;3.15;0.80;;;8.70;99.90;;;;;;5053536;28;20047;-75
2022/10/03 03:15:08;;;;;;;2.67;0.80;;;8.70;99.90;;;;;;5080920;28;20068;-74
2022/10/03 03:17:40;;;;;;;3.75;0.50;;;8.70;99.90;;;;;;5075317;28;20039;-75
2022/10/03 03:20:18;;;;;;;3.45;0.63;;;8.60;99.90;;;;;;5078832;28;20036;-75
2022/10/03 03:22:57;;;;;;;3.70;0.80;;;8.60;99.90;;;;;;5080968;28;20505;-75
2022/10/03 03:25:38;;;;;;;4.07;1.05;;;8.60;99.90;;;;;;5081860;28;20043;-74
2022/10/03 03:28:10;;;;;;;3.22;0.98;;;8.60;99.90;;;;;;5056437;28;20052;-75
2022/10/03 03:30:46;;;;;;;;;;;8.60;99.90;;;;;;5079147;28;20036;-74
2022/10/03 03:33:23;;;;;;;4.28;0.70;;;8.50;99.90;;;;;;5079597;28;19916;-75
2022/10/03 03:36:06;;;;;;;5.88;0.80;;;8.50;99.90;;;;;;5079637;28;20044;-75
2022/10/03 03:38:38;;;;;;;4.97;0.80;;;8.50;99.90;;;;;;5075475;28;20047;-75
2022/10/03 03:41:29;;;;;;;4.32;0.70;;;8.50;99.90;;;;;;5078664;28;20489;-74
2022/10/03 03:44:14;;;;;;;4.20;0.70;;;8.40;99.90;;;;;;5088882;28;20066;-75
2022/10/03 03:46:59;;;;;;;4.72;0.60;;;8.40;99.90;;;;;;5100420;28;20039;-75
2022/10/03 03:49:59;;;;;;;2.90;0.45;;;8.40;99.90;;;;;;5098931;28;20034;-75
2022/10/03 03:52:36;;;;;;;5.85;0.70;;;8.40;99.90;;;;;;5100753;28;20042;-75
2022/10/03 03:55:25;;;;;;;2.63;0.55;;;8.40;99.90;;;;;;5098294;28;20043;-75
2022/10/03 03:58:07;;;;;;;7.65;0.82;;;8.40;99.90;;;;;;5078185;28;20055;-74
2022/10/03 04:00:55;;;;;;;1.77;0.35;;;8.40;99.90;;;;;;5048920;22;20062;-75
2022/10/03 04:03:43;;;;;;;2.90;0.47;;;8.30;99.90;;;;;;4999748;28;20053;-75
2022/10/03 04:06:35;;;;;;;3.50;0.50;;;8.30;99.90;;;;;;4999656;28;20413;-75
2022/10/03 04:09:20;;;;;;;1.92;0.30;;;8.30;99.90;;;;;;4994727;28;20496;-75
2022/10/03 04:12:07;;;;;;;1.65;0.30;;;8.30;99.90;;;;;;5000358;28;20420;-75
2022/10/03 04:14:56;;;;;;;1.85;0.40;;;8.30;99.90;;;;;;4998013;28;20042;-74
2022/10/03 04:20:42;;;;;;;2.67;0.40;;;8.30;99.90;;;;;;4999561;28;20049;-75
2022/10/03 04:23:30;;;;;;;3.97;0.60;;;8.20;99.90;;;;;;4989315;28;20058;-75
2022/10/03 04:26:06;;;;;;;2.58;0.55;;;8.20;99.90;;;;;;4998176;28;20045;-75
2022/10/03 04:28:35;;;;;;;1.80;0.60;;;8.20;99.90;;;;;;4995035;28;20045;-75
2022/10/03 04:31:18;;;;;;;2.08;0.50;;;8.20;99.90;;;;;;4998215;28;20046;-75
2022/10/03 04:33:50;;;;;;;5.72;0.60;;;8.10;99.90;;;;;;4999627;28;20408;-75
2022/10/03 04:36:54;;;;;;;2.75;0.50;;;8.10;99.90;;;;;;4999623;28;20045;-75
2022/10/03 04:39:50;;;;;;;1.00;0.30;;;8.10;99.90;;;;;;4997840;28;20041;-75
2022/10/03 04:42:48;;;;;;;1.98;0.30;;;8.10;99.90;;;;;;4997142;28;20598;-76
2022/10/03 04:45:27;;;;;;;3.95;1.00;;;8.10;99.90;;;;;;4997620;28;20030;-75
2022/10/03 04:48:32;;;;;;;5.22;1.10;;;8.10;99.90;;;;;;4994041;28;20046;-75
2022/10/03 04:51:40;;;;;;;4.88;1.10;;;8.10;99.90;;;;;;4997386;28;20046;-75
2022/10/03 04:54:49;;;;;;;3.63;0.90;;;8.10;99.90;;;;;;4984383;28;20042;-77
2022/10/03 04:57:57;;;;;;;1.92;0.50;;;8.10;99.90;;;;;;4961007;28;20328;-76
2022/10/03 05:00:32;;;;;;;5.07;1.33;;;8.10;99.90;;;;;;4937873;28;20062;-75
2022/10/03 05:03:25;;;;;;;3.97;1.00;;;8.00;99.90;;;;;;4987899;28;20053;-74
2022/10/03 05:05:55;;;;;;;5.03;1.20;;;8.00;99.90;;;;;;4996216;28;20044;-75
2022/10/03 05:08:34;;;;;;;3.30;1.00;;;8.00;99.90;;;;;;4991277;28;20048;-76
2022/10/03 05:11:25;;;;;;;5.03;0.95;;;8.00;99.90;;;;;;5002927;28;20057;-76
2022/10/03 05:14:04;;;;;;;6.28;0.90;;;8.00;99.90;;;;;;5014341;28;20042;-76
2022/10/03 05:16:42;;;;;;;4.65;0.80;;;8.00;99.90;;;;;;4998616;28;20045;-75
2022/10/03 05:19:21;;;;;;;2.40;0.73;;;8.00;99.90;;;;;;4993599;28;20040;-75
2022/10/03 05:22:22;;;;;;;4.53;1.10;;;8.00;99.90;;;;;;4981839;28;20060;-75
2022/10/03 05:25:15;;;;;;;2.90;0.52;;;7.90;99.90;;;;;;4988594;28;20531;-75
2022/10/03 05:27:52;;;;;;;5.05;1.08;;;7.90;99.90;;;;;;4994514;28;21083;-75
2022/10/03 05:30:35;;;;;;;2.95;1.05;;;7.90;99.90;;;;;;4999875;28;20052;-75
2022/10/03 05:33:23;;;;;;;2.83;0.93;;;7.90;99.90;;;;;;5012719;28;20052;-75
2022/10/03 05:36:08;;;;;;;3.20;0.80;;;7.90;99.90;;;;;;5014553;28;20042;-75
2022/10/03 05:38:50;;;;;;;4.68;0.90;;;7.80;99.90;;;;;;4995928;28;20073;-75
2022/10/03 05:41:24;;;;;;;2.72;0.50;;;7.90;99.90;;;;;;5002639;28;20401;-76
2022/10/03 05:44:16;;;;;;;3.42;0.40;;;7.90;99.90;;;;;;5015129;28;20053;-75
2022/10/03 05:47:43;;;;;;;3.05;0.55;;;7.90;99.90;;;;;;4997072;28;20049;-75
2022/10/03 05:50:17;;;;;;;4.05;0.52;;;7.90;99.90;;;;;;5001314;28;20072;-75
2022/10/03 05:52:55;;;;;;;6.05;1.45;;;7.90;99.90;;;;;;5001045;28;20595;-74
2022/10/03 05:55:31;;;;;;;8.80;3.85;;;7.90;99.90;;;;;;5002190;28;20050;-75
2022/10/03 05:58:22;;;;;;;7.75;3.42;;;7.90;99.90;;;;;;4997454;28;20046;-75
2022/10/03 06:01:24;;;;;;;6.18;2.40;;;7.90;99.90;;;;;;5003237;28;20120;-75
2022/10/03 06:04:21;;;;;;;4.45;1.90;;;7.90;99.90;;;;;;5002592;28;20382;-75
2022/10/03 06:07:11;;;;;;;4.55;1.35;;;8.00;99.90;;;;;;5001725;28;20060;-75
2022/10/03 06:09:57;;;;;;;3.28;0.90;;;8.00;99.90;;;;;;5003791;28;20045;-75
2022/10/03 06:13:02;;;;;;;2.90;0.68;;;7.90;99.90;;;;;;5002696;28;20029;-75
2022/10/03 06:15:53;;;;;;;3.53;0.60;;;8.00;99.90;;;;;;4991000;28;20517;-75
2022/10/03 06:18:33;;;;;;;5.55;1.02;;;8.00;99.90;;;;;;5012080;28;20061;-75
2022/10/03 06:21:32;;;;;;;3.92;0.45;;;8.10;99.90;;;;;;5002474;28;20034;-75
2022/10/03 06:24:30;;;;;;;3.15;0.43;;;8.10;99.90;;;;;;4984154;28;20042;-75
2022/10/03 06:27:18;;;;;;;4.40;0.80;;;8.20;99.90;;;;;;5000378;28;20396;-75
2022/10/03 06:30:14;;;;;;;3.97;0.75;;;8.30;99.90;;;;;;5004282;28;20050;-76
2022/10/03 06:32:59;;;;;;;2.00;0.40;;;8.40;99.90;;;;;;5000506;28;20045;-76
2022/10/03 06:35:47;;;;;;;2.83;0.70;;;8.40;99.90;;;;;;5002292;28;20485;-76
2022/10/03 06:38:22;;;;;;;2.38;0.60;;;8.50;99.90;;;;;;4996011;28;20488;-75
2022/10/03 06:41:16;;;;;;;3.25;0.57;;;8.60;99.90;;;;;;4987865;28;20077;-75
2022/10/03 06:43:42;;;;;;;5.55;0.90;;;8.70;99.90;;;;;;5000432;28;20048;-75
2022/10/03 06:46:38;;;;;;;2.75;0.57;;;8.80;99.90;;;;;;5000361;28;20045;-76
2022/10/03 06:49:31;;;;;;;2.17;0.50;;;8.90;99.90;;;;;;4980405;28;20412;-75
2022/10/03 06:52:35;;;;;;;3.58;0.50;;;9.00;99.90;;;;;;5017315;28;20100;-75
2022/10/03 06:55:03;;;;;;;;;;;9.10;99.90;;;;;;4991238;28;20436;-76
2022/10/03 06:57:57;;;;;;;3.00;0.50;;;9.20;99.90;;;;;;4995377;28;19921;-76
2022/10/03 07:00:51;;;;;;;2.28;0.40;;;9.30;99.90;;;;;;5006499;28;20420;-76
2022/10/03 07:03:41;;;;;;;2.65;0.52;;;9.40;99.90;;;;;;4999702;28;20048;-75
2022/10/03 07:06:33;;;;;;;4.75;1.65;;;9.60;99.90;;;;;;5000955;28;20033;-74
2022/10/03 07:09:37;;;;;;;4.70;1.73;;;9.70;99.90;;;;;;4996218;28;20045;-75
2022/10/03 07:12:05;;;;;;;5.05;1.33;;;9.90;99.90;;;;;;5000666;28;20400;-74
2022/10/03 07:14:40;;;;;;;4.18;1.23;;;10.00;99.90;;;;;;4999571;28;20050;-74
2022/10/03 07:17:09;;;;;;;4.05;1.30;;;10.10;99.90;;;;;;5012213;28;20046;-76
2022/10/03 07:19:55;;;;;;;3.47;1.10;;;10.20;99.90;;;;;;5014565;28;20045;-76
2022/10/03 07:22:43;;;;;;;4.95;1.50;;;10.40;99.90;;;;;;5000360;28;20068;-77
2022/10/03 07:25:54;;;;;;;2.65;0.70;;;10.50;99.90;;;;;;5000668;28;20034;-77
2022/10/03 07:28:50;;;;;;;3.85;1.52;;;10.70;99.90;;;;;;4994512;28;20056;-77
2022/10/03 07:31:50;;;;;;;2.55;1.02;;;10.80;99.90;;;;;;4988638;28;20056;-77
2022/10/03 07:34:44;;;;;;;2.78;0.80;;;11.00;99.90;;;;;;4985364;28;20645;-77
2022/10/03 07:40:49;;;;;;;3.97;1.10;;;11.30;99.90;;;;;;4999444;28;20052;-77
2022/10/03 07:43:39;;;;;;;3.53;1.00;;;11.40;99.90;;;;;;4999249;28;20053;-77
2022/10/03 07:46:09;;;;;;;3.97;1.45;;;11.50;99.90;;;;;;4997407;28;20052;-77
2022/10/03 07:49:04;;;;;;;2.67;0.93;;;11.60;99.90;;;;;;4993809;28;20081;-77
2022/10/03 07:51:36;;;;;;;2.95;1.00;;;11.70;99.90;;;;;;4990655;28;20050;-76
2022/10/03 07:54:06;;;;;;;3.83;1.00;;;11.90;99.90;;;;;;4998144;28;20405;-76
2022/10/03 07:56:49;;;;;;;3.22;1.02;;;12.10;99.90;;;;;;4998691;28;20580;-76
2022/10/03 07:59:51;;;;;;;4.22;1.10;;;12.20;99.90;;;;;;4978451;28;20052;-76
2022/10/03 08:02:49;;;;;;;5.50;1.10;;;12.30;99.90;;;;;;4986224;28;20596;-76
2022/10/03 08:05:21;;;;;;;4.75;1.48;;;12.50;99.90;;;;;;4983018;28;20050;-76
2022/10/03 08:08:15;;;;;;;2.60;1.00;;;12.60;99.90;;;;;;4995691;28;20389;-76
2022/10/03 08:11:24;;;;;;;2.65;1.02;;;12.80;99.90;;;;;;4998652;28;20412;-76
2022/10/03 08:14:01;;;;;;;5.70;1.10;;;12.90;99.90;;;;;;4999444;28;20409;-78
2022/10/03 08:17:00;;;;;;;2.47;0.80;;;13.10;99.90;;;;;;5001015;28;20049;-77
2022/10/03 08:19:49;;;;;;;4.82;1.02;;;13.20;99.90;;;;;;4998028;28;20033;-78
2022/10/03 08:23:00;;;;;;;3.38;1.10;;;13.40;99.90;;;;;;5015286;28;20056;-77
2022/10/03 08:25:50;;;;;;;4.82;1.48;;;13.50;99.90;;;;;;5000079;28;20044;-78
2022/10/03 08:28:19;;;;;;;4.25;0.90;;;13.60;99.90;;;;;;4993058;28;20042;-77
2022/10/03 08:31:18;;;;;;;3.47;1.13;;;13.70;99.90;;;;;;4999958;28;20045;-77
2022/10/03 08:34:09;;;;;;;1.85;1.10;;;13.80;99.90;;;;;;4998299;28;20042;-78
2022/10/03 08:37:02;;;;;;;3.20;1.30;;;14.00;99.90;;;;;;4998838;28;20412;-77
2022/10/03 08:39:49;;;;;;;5.43;1.17;;;14.10;99.90;;;;;;4998057;28;20041;-77
2022/10/03 08:42:44;;;;;;;3.30;1.25;;;14.10;99.90;;;;;;5001571;28;20057;-77
2022/10/03 08:45:57;;;;;;;5.80;1.35;;;14.20;99.90;;;;;;4997985;28;20048;-77
2022/10/03 08:48:55;;;;;;;4.75;1.50;;;14.20;99.90;;;;;;4993521;28;20045;-77
2022/10/03 08:51:39;;;;;;;4.57;1.10;;;14.30;99.90;;;;;;4998660;28;20493;-78
2022/10/03 08:54:56;;;;;;;5.45;1.35;;;14.40;99.90;;;;;;4997995;28;20049;-77
2022/10/03 08:57:47;;;;;;;2.00;1.00;;;14.50;99.90;;;;;;4957478;28;20061;-77
2022/10/03 09:00:22;;;;;;;2.58;0.85;;;14.70;99.90;;;;;;4997788;28;20453;-78
2022/10/03 09:03:34;;;;;;;2.78;1.30;;;14.90;99.90;;;;;;4985341;28;20049;-77
2022/10/03 09:06:38;;;;;;;3.10;1.13;;;15.00;99.90;;;;;;5013326;28;20037;-76
2022/10/03 09:09:28;;;;;;;3.08;0.98;;;15.20;99.90;;;;;;5008395;28;20049;-76
2022/10/03 09:12:08;;;;;;;3.85;1.25;;;15.40;99.90;;;;;;5002924;28;20038;-76
2022/10/03 09:15:03;;;;;;;3.42;1.30;;;15.50;99.90;;;;;;4985357;28;20428;-76
2022/10/03 09:17:59;;;;;;;3.25;0.75;;;15.70;99.90;;;;;;4998689;28;20065;-77
2022/10/03 09:21:05;;;;;;;2.70;0.95;;;15.80;99.90;;;;;;5018744;28;20446;-77
2022/10/03 09:24:06;;;;;;;3.63;0.90;;;15.90;99.90;;;;;;5000560;28;20060;-78
2022/10/03 09:26:51;;;;;;;2.78;0.80;;;16.10;99.90;;;;;;5000795;28;20355;-77
2022/10/03 09:29:55;;;;;;;8.88;1.50;;;16.30;99.90;;;;;;4999220;28;20049;-77
2022/10/03 09:32:33;;;;;;;4.85;1.02;;;16.40;99.90;;;;;;5001361;28;20088;-77
2022/10/03 09:35:37;;;;;;;3.75;0.82;;;16.50;99.90;;;;;;5000128;28;20048;-77
2022/10/03 09:38:25;;;;;;;2.75;0.60;;;16.70;99.90;;;;;;4993579;28;20037;-76
2022/10/03 09:41:06;;;;;;;3.30;0.80;;;16.70;99.90;;;;;;5004099;28;20050;-76
2022/10/03 09:43:45;;;;;;;6.38;1.58;;;16.80;99.90;;;;;;5002045;28;20477;-76
2022/10/03 09:47:21;;;;;;;3.60;1.00;;;16.90;99.90;;;;;;5014967;28;20107;-76
2022/10/03 09:49:54;;;;;;;5.10;0.80;;;17.00;99.90;;;;;;5000938;28;20053;-76
2022/10/03 09:52:44;;;;;;;3.00;0.63;;;17.20;99.90;;;;;;4985251;28;20049;-77
2022/10/03 09:55:32;;;;;;;2.85;0.55;;;17.30;99.90;;;;;;5002460;28;20708;-77
2022/10/03 09:58:21;;;;;;;3.67;0.55;;;17.50;99.90;;;;;;4997021;28;20053;-76
2022/10/03 10:01:26;;;;;;;3.08;0.50;;;17.80;99.90;;;;;;4958001;28;20161;-76
2022/10/03 10:04:27;;;;;;;5.57;0.60;;;18.10;99.90;;;;;;4986274;28;20516;-77
2022/10/03 10:07:34;;;;;;;7.70;0.80;;;18.50;99.90;;;;;;5015367;28;20053;-76
2022/10/03 10:10:34;;;;;;;4.00;0.90;;;18.60;99.90;;;;;;4972451;28;20049;-77
2022/10/03 10:13:42;;;;;;;3.42;0.38;;;18.90;99.90;;;;;;5002055;28;20061;-77
2022/10/03 10:16:36;;;;;;;4.93;0.82;;;19.10;99.90;;;;;;4987223;28;20061;-77
2022/10/03 10:19:14;;;;;;;4.43;0.88;;;19.40;99.90;;;;;;4996079;28;20042;-77
2022/10/03 10:22:02;;;;;;;4.38;0.60;;;19.70;99.90;;;;;;4984726;28;20045;-77
2022/10/03 10:25:04;;;;;;;4.72;1.10;;;20.00;99.90;;;;;;4984037;28;20543;-77
2022/10/03 10:27:55;;;;;;;3.87;0.73;;;20.50;99.90;;;;;;5011207;28;20029;-76
2022/10/03 10:30:53;;;;;;;7.43;1.03;;;20.80;99.90;;;;;;4982993;28;20046;-77
2022/10/03 10:34:04;;;;;;;3.65;0.93;;;20.80;99.90;;;;;;4999497;28;20037;-77
2022/10/03 10:37:11;;;;;;;4.20;0.65;;;20.80;99.90;;;;;;4999320;28;20046;-76
2022/10/03 10:40:13;;;;;;;4.32;0.75;;;20.70;99.90;;;;;;5000603;28;20044;-76
2022/10/03 10:43:11;;;;;;;6.60;1.10;;;20.70;99.90;;;;;;5001421;28;20033;-77
2022/10/03 10:46:03;;;;;;;6.72;0.70;;;20.60;99.90;;;;;;5001444;28;20041;-76
2022/10/03 10:49:06;;;;;;;1.37;0.37;;;20.30;99.90;;;;;;4996605;28;20038;-76
2022/10/03 10:52:07;;;;;;;2.40;0.40;;;20.00;99.90;;;;;;5001214;28;20034;-79
2022/10/03 10:55:07;;;;;;;4.78;0.57;;;19.70;99.90;;;;;;5000118;28;20136;-73
2022/10/03 10:57:43;;;;;;;4.25;0.93;;;19.30;99.90;;;;;;4996223;28;20372;-74
2022/10/03 11:00:31;;;;;;;4.55;0.80;;;19.00;99.90;;;;;;4998520;28;20064;-73
2022/10/03 11:03:35;;;;;;;3.75;0.60;;;18.90;99.90;;;;;;4999431;28;20493;-72
2022/10/03 11:06:40;;;;;;;2.25;0.52;;;18.70;99.90;;;;;;5014130;28;20504;-73
2022/10/03 11:09:30;;;;;;;3.88;0.55;;;18.70;99.90;;;;;;4992344;28;20030;-72
2022/10/03 11:12:25;;;;;;;3.80;0.60;;;18.70;99.90;;;;;;4997851;28;20038;-73
2022/10/03 11:15:16;;;;;;;4.82;0.60;;;18.70;99.90;;;;;;4996152;28;20034;-73
2022/10/03 11:18:10;;;;;;;2.05;0.40;;;19.00;99.90;;;;;;4994279;28;20048;-73
2022/10/03 11:21:33;;;;;;;3.25;0.60;;;19.30;99.90;;;;;;4996141;28;20491;-76
2022/10/03 11:24:10;;;;;;;5.10;0.93;;;19.30;99.90;;;;;;4958673;28;20042;-72
2022/10/03 11:27:15;;;;;;;2.28;0.40;;;19.10;99.90;;;;;;4942618;28;20039;-73
2022/10/03 11:30:14;;;;;;;2.88;0.40;;;19.00;99.90;;;;;;4943959;28;20043;-72
2022/10/03 11:33:13;;;;;;;2.60;0.30;;;19.10;99.90;;;;;;4996803;28;20419;-73
2022/10/03 11:35:48;;;;;;;3.28;0.50;;;19.50;99.90;;;;;;4997095;28;20026;-74
2022/10/03 11:38:48;;;;;;;4.25;0.90;;;19.80;99.90;;;;;;4995386;28;20045;-75
2022/10/03 11:41:34;;;;;;;5.25;0.70;;;19.90;99.90;;;;;;4998350;28;20497;-75
2022/10/03 11:44:14;;;;;;;3.38;0.60;;;20.10;99.90;;;;;;4997528;28;20057;-74
2022/10/03 11:46:46;;;;;;;2.17;0.40;;;20.70;99.90;;;;;;4999723;28;20029;-78
2022/10/03 11:49:19;;;;;;;;;;;21.40;99.90;;;;;;5011464;28;20045;-75
2022/10/03 11:52:10;;;;;;;2.60;0.75;;;22.00;99.90;;;;;;4999835;28;19924;-75
2022/10/03 11:54:46;;;;;;;1.95;0.65;;;22.40;99.90;;;;;;4998970;28;20479;-75
2022/10/03 11:57:35;;;;;;;2.22;0.40;;;22.50;99.90;;;;;;5010849;28;20038;-75
2022/10/03 12:00:22;;;;;;;4.65;0.45;;;22.20;99.90;;;;;;4995840;28;20058;-75
2022/10/03 12:03:12;;;;;;;2.38;0.55;;;21.60;99.90;;;;;;4982160;28;20398;-75
2022/10/03 12:09:07;;;;;;;2.15;0.30;;;20.50;99.90;;;;;;4952494;28;20053;-75
2022/10/03 12:11:49;;;;;;;2.33;0.50;;;20.20;99.90;;;;;;4967689;28;20041;-75
2022/10/03 12:14:33;;;;;;;4.35;0.43;;;20.00;99.90;;;;;;4968787;28;20061;-78
2022/10/03 12:17:00;;;;;;;1.60;0.30;;;19.90;99.90;;;;;;4965522;28;20543;-73
2022/10/03 12:19:38;;;;;;;1.98;0.30;;;19.90;99.90;;;;;;4962881;28;20065;-76
2022/10/03 12:22:19;;;;;;;2.33;0.30;;;19.90;99.90;;;;;;4984378;28;20038;-75
2022/10/03 12:24:48;;;;;;;2.55;0.52;;;20.00;99.90;;;;;;4967066;28;20053;-76
2022/10/03 12:27:41;;;;;;;2.13;0.40;;;20.00;99.90;;;;;;4980255;28;20053;-75
2022/10/03 12:30:15;;;;;;;;;;;19.80;99.90;;;;;;4988271;28;20524;-75
2022/10/03 12:32:57;;;;;;;2.15;0.50;;;19.60;99.90;;;;;;4983758;28;19914;-74
2022/10/03 12:35:42;;;;;;;;;;;19.40;99.90;;;;;;4968052;28;20038;-74
2022/10/03 12:38:27;;;;;;;1.65;0.30;;;19.30;99.90;;;;;;4979649;28;19914;-74
2022/10/03 12:41:31;;;;;;;2.50;0.38;;;19.20;99.90;;;;;;4990025;28;20493;-75
2022/10/03 12:44:04;;;;;;;2.78;0.50;;;19.10;99.90;;;;;;4986388;28;20394;-73
2022/10/03 12:46:46;;;;;;;3.45;0.40;;;19.20;99.90;;;;;;4975341;28;20042;-77
2022/10/03 12:49:30;;;;;;;2.55;0.30;;;19.30;99.90;;;;;;4977560;28;20041;-77
2022/10/03 12:52:00;;;;;;;1.80;0.30;;;19.50;99.90;;;;;;4950741;28;20041;-77
2022/10/03 12:54:42;;;;;;;1.85;0.50;;;19.80;99.90;;;;;;4982836;28;20046;-77
2022/10/03 12:57:25;;;;;;;3.65;0.30;;;20.30;99.90;;;;;;4977222;28;20054;-77
2022/10/03 13:00:19;;;;;;;4.15;0.40;;;21.10;99.90;;;;;;4968091;28;20062;-78
2022/10/03 13:03:13;;;;;;;3.25;0.40;;;21.60;99.90;;;;;;4996496;28;20531;-77
2022/10/03 13:05:42;;;;;;;2.30;0.38;;;21.90;99.90;;;;;;5011540;28;20038;-77
2022/10/03 13:08:41;;;;;;;3.80;0.40;;;22.40;99.90;;;;;;4992142;28;20042;-77
2022/10/03 13:11:24;;;;;;;3.15;0.50;;;22.60;99.90;;;;;;5014294;28;20041;-77
2022/10/03 13:14:29;;;;;;;2.70;0.40;;;22.40;99.90;;;;;;4999266;28;20485;-77
2022/10/03 13:17:34;;;;;;;4.97;0.52;;;22.20;99.30;;;;;;4998529;28;20046;-77
2022/10/03 13:20:09;;;;;;;2.33;0.40;;;21.70;98.40;;;;;;4998968;28;20030;-77
2022/10/03 13:22:52;;;;;;;2.42;0.40;;;21.50;98.80;;;;;;4998291;28;20037;-77
2022/10/03 13:25:23;;;;;;;2.53;0.40;;;21.30;99.20;;;;;;5013319;28;20045;-77
2022/10/03 13:28:16;;;;;;;2.50;0.50;;;21.10;99.00;;;;;;4994772;28;20041;-77
2022/10/03 13:30:52;;;;;;;2.40;0.40;;;21.00;99.40;;;;;;4979957;28;20046;-77
2022/10/03 13:33:24;;;;;;;1.48;0.30;;;21.00;99.60;;;;;;4997963;28;20049;-77
2022/10/03 13:35:59;;;;;;;2.20;0.43;;;21.00;99.80;;;;;;4999083;28;20054;-77
2022/10/03 13:38:57;;;;;;;1.58;0.57;;;21.00;99.90;;;;;;4992511;28;20054;-77
2022/10/03 13:41:46;;;;;;;2.17;0.40;;;21.00;99.90;;;;;;4975121;28;20381;-77
2022/10/03 13:44:12;;;;;;;2.30;0.40;;;20.80;99.90;;;;;;4998478;28;20380;-77
2022/10/03 13:47:10;;;;;;;3.40;0.40;;;20.70;99.90;;;;;;4999874;28;20037;-77
2022/10/03 13:50:05;;;;;;;4.78;0.50;;;20.60;99.90;;;;;;4999693;28;20046;-77
2022/10/03 13:52:52;;;;;;;2.63;0.32;;;20.60;99.90;;;;;;4995115;28;20062;-77
2022/10/03 13:55:34;;;;;;;3.17;0.60;;;20.50;99.90;;;;;;5014446;28;20048;-77
2022/10/03 13:58:16;;;;;;;5.20;0.60;;;20.40;99.90;;;;;;5009708;28;20408;-77
2022/10/03 14:00:51;;;;;;;2.08;0.38;;;20.40;99.90;;;;;;5017564;28;20057;-77
2022/10/03 14:03:44;;;;;;;3.80;0.60;;;20.50;99.90;;;;;;4984408;28;20113;-77
2022/10/03 14:06:20;;;;;;;1.35;0.45;;;20.50;99.90;;;;;;5007138;28;20033;-77
2022/10/03 14:09:25;;;;;;;2.28;0.30;;;20.60;99.90;;;;;;4994747;28;20057;-77
2022/10/03 14:12:10;;;;;;;3.40;0.40;;;20.60;99.90;;;;;;5002511;28;20049;-77
2022/10/03 14:15:00;;;;;;;3.53;0.47;;;20.70;99.90;;;;;;5017480;28;20034;-77
2022/10/03 14:17:30;;;;;;;4.30;0.50;;;20.70;99.50;;;;;;4999634;28;20038;-77
2022/10/03 14:20:15;;;;;;;2.88;0.40;;;20.60;99.70;;;;;;4972094;28;20049;-77
2022/10/03 14:22:55;;;;;;;3.03;0.40;;;20.50;99.70;;;;;;5015149;28;20122;-77
2022/10/03 14:25:27;;;;;;;3.13;0.40;;;20.50;99.90;;;;;;5001356;28;20041;-78
2022/10/03 14:28:02;;;;;;;2.55;0.40;;;20.60;99.90;;;;;;5010660;28;20041;-78
2022/10/03 14:30:47;;;;;;;1.65;0.40;;;20.50;99.90;;;;;;5003619;28;20042;-77
2022/10/03 14:33:32;;;;;;;3.08;0.50;;;20.50;99.90;;;;;;5016233;28;20044;-77
2022/10/03 14:36:36;;;;;;;3.35;0.50;;;20.40;99.90;;;;;;5000515;28;20531;-77
2022/10/03 14:39:15;;;;;;;2.90;0.40;;;20.30;99.90;;;;;;4994276;28;20037;-77
2022/10/03 14:42:11;;;;;;;3.33;0.40;;;20.20;99.90;;;;;;5001326;28;20049;-77
2022/10/03 14:44:42;;;;;;;4.07;0.40;;;20.10;99.90;;;;;;5000352;28;20042;-76
2022/10/03 14:47:17;;;;;;;3.20;0.40;;;20.00;99.90;;;;;;4996816;28;20646;-76
2022/10/03 14:50:04;;;;;;;3.70;0.80;;;20.00;99.90;;;;;;4999657;28;20041;-77
2022/10/03 14:52:42;;;;;;;3.92;0.45;;;19.90;99.90;;;;;;5000080;28;20056;-77
2022/10/03 14:55:24;;;;;;;2.08;0.35;;;19.80;99.90;;;;;;4999919;28;20038;-77